sensor_id;sensor_type;location;lat;lon;timestamp;P1;durP1;ratioP1;P2;durP2;ratioP2
22634;SDS011;11484;50.858;4.384;2022-09-02T00:00:41;5.13;;;2.42;;
22634;SDS011;11484;50.858;4.384;2022-09-02T00:03:13;5.07;;;2.40;;
22634;SDS011;11484;50.858;4.384;2022-09-02T00:05:39;4.00;;;2.28;;
22634;SDS011;11484;50.858;4.384;2022-09-02T00:08:05;4.05;;;2.47;;
22634;SDS011;11484;50.858;4.384;2022-09-02T00:10:33;4.15;;;2.28;;
22634;SDS011;11484;50.858;4.384;2022-09-02T00:13:00;6.22;;;2.45;;
22634;SDS011;11484;50.858;4.384;2022-09-02T00:15:26;4.03;;;2.30;;
22634;SDS011;11484;50.858;4.384;2022-09-02T00:17:52;4.90;;;2.40;;
22634;SDS011;11484;50.858;4.384;2022-09-02T00:20:18;4.05;;;2.10;;
22634;SDS011;11484;50.858;4.384;2022-09-02T00:22:44;5.95;;;2.58;;
22634;SDS011;11484;50.858;4.384;2022-09-02T00:25:10;7.22;;;2.25;;
22634;SDS011;11484;50.858;4.384;2022-09-02T00:27:36;4.60;;;2.28;;
22634;SDS011;11484;50.858;4.384;2022-09-02T00:30:02;3.17;;;2.10;;
22634;SDS011;11484;50.858;4.384;2022-09-02T00:32:33;5.28;;;2.40;;
22634;SDS011;11484;50.858;4.384;2022-09-02T00:34:59;5.80;;;2.00;;
22634;SDS011;11484;50.858;4.384;2022-09-02T00:37:26;4.45;;;2.20;;
22634;SDS011;11484;50.858;4.384;2022-09-02T00:39:52;3.10;;;1.80;;
22634;SDS011;11484;50.858;4.384;2022-09-02T00:42:19;3.72;;;2.50;;
22634;SDS011;11484;50.858;4.384;2022-09-02T00:44:46;6.40;;;2.30;;
22634;SDS011;11484;50.858;4.384;2022-09-02T00:47:13;5.85;;;2.25;;
22634;SDS011;11484;50.858;4.384;2022-09-02T00:49:40;2.45;;;2.10;;
22634;SDS011;11484;50.858;4.384;2022-09-02T00:54:40;3.30;;;2.35;;
22634;SDS011;11484;50.858;4.384;2022-09-02T00:57:25;3.15;;;1.95;;
22634;SDS011;11484;50.858;4.384;2022-09-02T01:00:14;3.70;;;2.15;;
22634;SDS011;11484;50.858;4.384;2022-09-02T01:03:10;4.90;;;2.28;;
22634;SDS011;11484;50.858;4.384;2022-09-02T01:05:42;4.68;;;2.40;;
22634;SDS011;11484;50.858;4.384;2022-09-02T01:08:13;4.18;;;2.35;;
22634;SDS011;11484;50.858;4.384;2022-09-02T01:10:43;4.18;;;2.20;;
22634;SDS011;11484;50.858;4.384;2022-09-02T01:13:12;4.60;;;2.20;;
22634;SDS011;11484;50.858;4.384;2022-09-02T01:15:42;5.70;;;2.20;;
22634;SDS011;11484;50.858;4.384;2022-09-02T01:18:15;5.82;;;2.40;;
22634;SDS011;11484;50.858;4.384;2022-09-02T01:20:44;5.03;;;2.25;;
22634;SDS011;11484;50.858;4.384;2022-09-02T01:23:12;5.43;;;2.35;;
22634;SDS011;11484;50.858;4.384;2022-09-02T01:25:41;3.67;;;2.30;;
22634;SDS011;11484;50.858;4.384;2022-09-02T01:28:08;5.13;;;2.30;;
22634;SDS011;11484;50.858;4.384;2022-09-02T01:30:36;3.05;;;2.10;;
22634;SDS011;11484;50.858;4.384;2022-09-02T01:33:04;4.72;;;2.40;;
22634;SDS011;11484;50.858;4.384;2022-09-02T01:35:29;2.95;;;1.95;;
22634;SDS011;11484;50.858;4.384;2022-09-02T01:37:56;3.53;;;2.30;;
22634;SDS011;11484;50.858;4.384;2022-09-02T01:40:24;3.00;;;2.30;;
22634;SDS011;11484;50.858;4.384;2022-09-02T01:42:55;3.40;;;2.35;;
22634;SDS011;11484;50.858;4.384;2022-09-02T01:45:27;5.03;;;2.20;;
22634;SDS011;11484;50.858;4.384;2022-09-02T01:47:53;4.85;;;2.53;;
22634;SDS011;11484;50.858;4.384;2022-09-02T01:50:19;3.42;;;2.15;;
22634;SDS011;11484;50.858;4.384;2022-09-02T01:52:46;5.18;;;2.35;;
22634;SDS011;11484;50.858;4.384;2022-09-02T01:55:11;3.72;;;2.28;;
22634;SDS011;11484;50.858;4.384;2022-09-02T01:57:38;5.00;;;2.25;;
22634;SDS011;11484;50.858;4.384;2022-09-02T02:00:05;4.05;;;2.25;;
22634;SDS011;11484;50.858;4.384;2022-09-02T02:02:33;5.28;;;2.45;;
22634;SDS011;11484;50.858;4.384;2022-09-02T02:04:59;2.80;;;2.00;;
22634;SDS011;11484;50.858;4.384;2022-09-02T02:07:24;7.78;;;2.67;;
22634;SDS011;11484;50.858;4.384;2022-09-02T02:09:50;3.92;;;2.33;;
22634;SDS011;11484;50.858;4.384;2022-09-02T02:12:16;4.30;;;2.53;;
22634;SDS011;11484;50.858;4.384;2022-09-02T02:14:42;3.20;;;2.20;;
22634;SDS011;11484;50.858;4.384;2022-09-02T02:17:08;3.15;;;1.90;;
22634;SDS011;11484;50.858;4.384;2022-09-02T02:19:34;3.25;;;2.22;;
22634;SDS011;11484;50.858;4.384;2022-09-02T02:22:00;2.85;;;2.30;;
22634;SDS011;11484;50.858;4.384;2022-09-02T02:24:26;4.63;;;2.33;;
22634;SDS011;11484;50.858;4.384;2022-09-02T02:26:52;5.35;;;2.35;;
22634;SDS011;11484;50.858;4.384;2022-09-02T02:29:18;5.22;;;2.65;;
22634;SDS011;11484;50.858;4.384;2022-09-02T02:31:44;6.82;;;2.42;;
22634;SDS011;11484;50.858;4.384;2022-09-02T02:34:10;4.88;;;2.55;;
22634;SDS011;11484;50.858;4.384;2022-09-02T02:36:37;3.88;;;2.40;;
22634;SDS011;11484;50.858;4.384;2022-09-02T02:39:04;3.28;;;2.47;;
22634;SDS011;11484;50.858;4.384;2022-09-02T02:41:31;4.95;;;2.70;;
22634;SDS011;11484;50.858;4.384;2022-09-02T02:43:57;3.80;;;2.40;;
22634;SDS011;11484;50.858;4.384;2022-09-02T02:46:23;5.68;;;2.85;;
22634;SDS011;11484;50.858;4.384;2022-09-02T02:48:49;5.05;;;2.20;;
22634;SDS011;11484;50.858;4.384;2022-09-02T02:51:15;4.05;;;2.97;;
22634;SDS011;11484;50.858;4.384;2022-09-02T02:53:41;4.65;;;2.83;;
22634;SDS011;11484;50.858;4.384;2022-09-02T02:56:07;5.72;;;2.67;;
22634;SDS011;11484;50.858;4.384;2022-09-02T02:58:34;4.95;;;2.85;;
22634;SDS011;11484;50.858;4.384;2022-09-02T03:01:00;3.13;;;2.70;;
22634;SDS011;11484;50.858;4.384;2022-09-02T03:03:27;5.55;;;2.70;;
22634;SDS011;11484;50.858;4.384;2022-09-02T03:05:52;3.97;;;3.08;;
22634;SDS011;11484;50.858;4.384;2022-09-02T03:08:19;3.95;;;2.55;;
22634;SDS011;11484;50.858;4.384;2022-09-02T03:10:46;4.35;;;2.60;;
22634;SDS011;11484;50.858;4.384;2022-09-02T03:13:18;6.93;;;2.90;;
22634;SDS011;11484;50.858;4.384;2022-09-02T03:15:45;6.10;;;2.83;;
22634;SDS011;11484;50.858;4.384;2022-09-02T03:18:11;5.57;;;2.80;;
22634;SDS011;11484;50.858;4.384;2022-09-02T03:20:38;5.05;;;3.22;;
22634;SDS011;11484;50.858;4.384;2022-09-02T03:23:04;5.95;;;2.50;;
22634;SDS011;11484;50.858;4.384;2022-09-02T03:25:30;5.13;;;3.10;;
22634;SDS011;11484;50.858;4.384;2022-09-02T03:27:57;4.95;;;3.30;;
22634;SDS011;11484;50.858;4.384;2022-09-02T03:30:25;6.13;;;3.10;;
22634;SDS011;11484;50.858;4.384;2022-09-02T03:32:52;6.72;;;3.00;;
22634;SDS011;11484;50.858;4.384;2022-09-02T03:35:20;7.47;;;3.20;;
22634;SDS011;11484;50.858;4.384;2022-09-02T03:37:47;4.75;;;3.05;;
22634;SDS011;11484;50.858;4.384;2022-09-02T03:40:16;4.43;;;3.08;;
22634;SDS011;11484;50.858;4.384;2022-09-02T03:42:43;5.47;;;3.20;;
22634;SDS011;11484;50.858;4.384;2022-09-02T03:45:09;4.15;;;3.20;;
22634;SDS011;11484;50.858;4.384;2022-09-02T03:47:35;4.65;;;2.92;;
22634;SDS011;11484;50.858;4.384;2022-09-02T03:50:04;5.10;;;3.00;;
22634;SDS011;11484;50.858;4.384;2022-09-02T03:52:31;5.10;;;3.00;;
22634;SDS011;11484;50.858;4.384;2022-09-02T03:54:57;6.78;;;2.90;;
22634;SDS011;11484;50.858;4.384;2022-09-02T03:57:22;5.60;;;2.88;;
22634;SDS011;11484;50.858;4.384;2022-09-02T03:59:50;4.95;;;2.70;;
22634;SDS011;11484;50.858;4.384;2022-09-02T04:02:16;4.35;;;2.83;;
22634;SDS011;11484;50.858;4.384;2022-09-02T04:04:42;3.75;;;2.75;;
22634;SDS011;11484;50.858;4.384;2022-09-02T04:07:08;3.95;;;2.90;;
22634;SDS011;11484;50.858;4.384;2022-09-02T04:09:34;8.30;;;3.15;;
22634;SDS011;11484;50.858;4.384;2022-09-02T04:11:59;5.82;;;3.10;;
22634;SDS011;11484;50.858;4.384;2022-09-02T04:14:25;16.00;;;4.13;;
22634;SDS011;11484;50.858;4.384;2022-09-02T04:16:51;5.50;;;3.67;;
22634;SDS011;11484;50.858;4.384;2022-09-02T04:19:17;5.38;;;3.55;;
22634;SDS011;11484;50.858;4.384;2022-09-02T04:21:42;4.25;;;2.95;;
22634;SDS011;11484;50.858;4.384;2022-09-02T04:24:09;5.70;;;3.30;;
22634;SDS011;11484;50.858;4.384;2022-09-02T04:26:35;3.70;;;2.80;;
22634;SDS011;11484;50.858;4.384;2022-09-02T04:29:01;5.85;;;4.00;;
22634;SDS011;11484;50.858;4.384;2022-09-02T04:31:27;5.18;;;4.10;;
22634;SDS011;11484;50.858;4.384;2022-09-02T04:33:55;8.88;;;3.85;;
22634;SDS011;11484;50.858;4.384;2022-09-02T04:36:21;6.68;;;4.25;;
22634;SDS011;11484;50.858;4.384;2022-09-02T04:38:48;9.00;;;4.07;;
22634;SDS011;11484;50.858;4.384;2022-09-02T04:41:16;6.85;;;4.10;;
22634;SDS011;11484;50.858;4.384;2022-09-02T04:43:43;7.38;;;4.10;;
22634;SDS011;11484;50.858;4.384;2022-09-02T04:46:11;4.25;;;3.85;;
22634;SDS011;11484;50.858;4.384;2022-09-02T04:48:39;6.82;;;4.28;;
22634;SDS011;11484;50.858;4.384;2022-09-02T04:51:05;4.97;;;3.80;;
22634;SDS011;11484;50.858;4.384;2022-09-02T04:53:34;7.45;;;4.28;;
22634;SDS011;11484;50.858;4.384;2022-09-02T04:56:02;7.72;;;3.88;;
22634;SDS011;11484;50.858;4.384;2022-09-02T04:58:30;6.17;;;4.43;;
22634;SDS011;11484;50.858;4.384;2022-09-02T05:00:55;7.60;;;4.10;;
22634;SDS011;11484;50.858;4.384;2022-09-02T05:03:21;8.40;;;4.30;;
22634;SDS011;11484;50.858;4.384;2022-09-02T05:05:56;5.75;;;3.90;;
22634;SDS011;11484;50.858;4.384;2022-09-02T05:08:26;10.20;;;4.40;;
22634;SDS011;11484;50.858;4.384;2022-09-02T05:10:52;12.07;;;4.57;;
22634;SDS011;11484;50.858;4.384;2022-09-02T05:13:18;7.88;;;4.25;;
22634;SDS011;11484;50.858;4.384;2022-09-02T05:15:44;5.93;;;3.90;;
22634;SDS011;11484;50.858;4.384;2022-09-02T05:18:09;5.55;;;4.15;;
22634;SDS011;11484;50.858;4.384;2022-09-02T05:20:39;6.85;;;4.25;;
22634;SDS011;11484;50.858;4.384;2022-09-02T05:23:08;6.13;;;4.60;;
22634;SDS011;11484;50.858;4.384;2022-09-02T05:25:35;9.38;;;4.20;;
22634;SDS011;11484;50.858;4.384;2022-09-02T05:28:02;7.40;;;4.18;;
22634;SDS011;11484;50.858;4.384;2022-09-02T05:30:29;6.72;;;4.03;;
22634;SDS011;11484;50.858;4.384;2022-09-02T05:32:54;9.88;;;4.00;;
22634;SDS011;11484;50.858;4.384;2022-09-02T05:35:21;17.17;;;4.90;;
22634;SDS011;11484;50.858;4.384;2022-09-02T05:37:46;11.00;;;5.30;;
22634;SDS011;11484;50.858;4.384;2022-09-02T05:40:12;9.43;;;4.50;;
22634;SDS011;11484;50.858;4.384;2022-09-02T05:42:38;6.68;;;4.10;;
22634;SDS011;11484;50.858;4.384;2022-09-02T05:45:04;5.53;;;4.03;;
22634;SDS011;11484;50.858;4.384;2022-09-02T05:47:32;5.18;;;4.10;;
22634;SDS011;11484;50.858;4.384;2022-09-02T05:49:58;7.00;;;3.95;;
22634;SDS011;11484;50.858;4.384;2022-09-02T05:52:25;7.75;;;4.22;;
22634;SDS011;11484;50.858;4.384;2022-09-02T05:54:52;6.85;;;4.03;;
22634;SDS011;11484;50.858;4.384;2022-09-02T05:57:18;8.57;;;4.60;;
22634;SDS011;11484;50.858;4.384;2022-09-02T05:59:45;10.00;;;4.35;;
22634;SDS011;11484;50.858;4.384;2022-09-02T06:02:13;13.05;;;4.90;;
22634;SDS011;11484;50.858;4.384;2022-09-02T06:04:46;8.15;;;4.30;;
22634;SDS011;11484;50.858;4.384;2022-09-02T06:09:40;7.13;;;4.57;;
22634;SDS011;11484;50.858;4.384;2022-09-02T06:12:08;5.95;;;4.25;;
22634;SDS011;11484;50.858;4.384;2022-09-02T06:14:38;4.45;;;4.05;;
22634;SDS011;11484;50.858;4.384;2022-09-02T06:17:07;5.25;;;4.20;;
22634;SDS011;11484;50.858;4.384;2022-09-02T06:19:33;6.55;;;4.53;;
22634;SDS011;11484;50.858;4.384;2022-09-02T06:22:00;5.20;;;3.85;;
22634;SDS011;11484;50.858;4.384;2022-09-02T06:24:27;6.65;;;4.80;;
22634;SDS011;11484;50.858;4.384;2022-09-02T06:26:55;5.90;;;4.35;;
22634;SDS011;11484;50.858;4.384;2022-09-02T06:29:21;7.90;;;4.20;;
22634;SDS011;11484;50.858;4.384;2022-09-02T06:31:49;4.32;;;3.92;;
22634;SDS011;11484;50.858;4.384;2022-09-02T06:34:16;9.45;;;4.75;;
22634;SDS011;11484;50.858;4.384;2022-09-02T06:36:44;5.10;;;4.10;;
22634;SDS011;11484;50.858;4.384;2022-09-02T06:39:13;9.82;;;4.53;;
22634;SDS011;11484;50.858;4.384;2022-09-02T06:41:41;9.55;;;4.60;;
22634;SDS011;11484;50.858;4.384;2022-09-02T06:44:11;6.35;;;3.90;;
22634;SDS011;11484;50.858;4.384;2022-09-02T06:46:38;8.32;;;4.57;;
22634;SDS011;11484;50.858;4.384;2022-09-02T06:49:08;7.25;;;3.63;;
22634;SDS011;11484;50.858;4.384;2022-09-02T06:51:36;5.90;;;4.22;;
22634;SDS011;11484;50.858;4.384;2022-09-02T06:54:04;10.23;;;3.97;;
22634;SDS011;11484;50.858;4.384;2022-09-02T06:56:32;5.70;;;3.53;;
22634;SDS011;11484;50.858;4.384;2022-09-02T06:58:58;5.90;;;3.85;;
22634;SDS011;11484;50.858;4.384;2022-09-02T07:01:25;6.22;;;3.70;;
22634;SDS011;11484;50.858;4.384;2022-09-02T07:03:53;6.60;;;3.50;;
22634;SDS011;11484;50.858;4.384;2022-09-02T07:06:47;5.18;;;3.05;;
22634;SDS011;11484;50.858;4.384;2022-09-02T07:09:20;6.05;;;3.45;;
22634;SDS011;11484;50.858;4.384;2022-09-02T07:11:47;6.03;;;3.15;;
22634;SDS011;11484;50.858;4.384;2022-09-02T07:14:15;4.78;;;2.92;;
22634;SDS011;11484;50.858;4.384;2022-09-02T07:16:42;6.25;;;2.83;;
22634;SDS011;11484;50.858;4.384;2022-09-02T07:19:14;4.95;;;2.80;;
22634;SDS011;11484;50.858;4.384;2022-09-02T07:21:40;4.45;;;2.80;;
22634;SDS011;11484;50.858;4.384;2022-09-02T07:24:07;5.28;;;2.65;;
22634;SDS011;11484;50.858;4.384;2022-09-02T07:26:34;4.90;;;2.42;;
22634;SDS011;11484;50.858;4.384;2022-09-02T07:29:01;5.65;;;2.88;;
22634;SDS011;11484;50.858;4.384;2022-09-02T07:31:27;4.45;;;2.88;;
22634;SDS011;11484;50.858;4.384;2022-09-02T07:33:53;6.90;;;3.42;;
22634;SDS011;11484;50.858;4.384;2022-09-02T07:36:22;5.23;;;2.73;;
22634;SDS011;11484;50.858;4.384;2022-09-02T07:38:51;3.67;;;2.30;;
22634;SDS011;11484;50.858;4.384;2022-09-02T07:41:18;6.57;;;2.92;;
22634;SDS011;11484;50.858;4.384;2022-09-02T07:43:44;3.25;;;2.60;;
22634;SDS011;11484;50.858;4.384;2022-09-02T07:46:11;3.55;;;2.65;;
22634;SDS011;11484;50.858;4.384;2022-09-02T07:48:37;4.53;;;2.70;;
22634;SDS011;11484;50.858;4.384;2022-09-02T07:51:03;3.88;;;2.55;;
22634;SDS011;11484;50.858;4.384;2022-09-02T07:53:30;3.78;;;2.60;;
22634;SDS011;11484;50.858;4.384;2022-09-02T07:55:56;4.07;;;3.00;;
22634;SDS011;11484;50.858;4.384;2022-09-02T07:58:23;7.65;;;2.72;;
22634;SDS011;11484;50.858;4.384;2022-09-02T08:00:50;6.45;;;3.20;;
22634;SDS011;11484;50.858;4.384;2022-09-02T08:03:17;5.40;;;2.92;;
22634;SDS011;11484;50.858;4.384;2022-09-02T08:05:43;7.38;;;3.40;;
22634;SDS011;11484;50.858;4.384;2022-09-02T08:08:11;6.07;;;3.13;;
22634;SDS011;11484;50.858;4.384;2022-09-02T08:10:39;5.57;;;3.33;;
22634;SDS011;11484;50.858;4.384;2022-09-02T08:13:05;3.75;;;3.22;;
22634;SDS011;11484;50.858;4.384;2022-09-02T08:15:32;7.18;;;3.17;;
22634;SDS011;11484;50.858;4.384;2022-09-02T08:18:00;7.22;;;3.38;;
22634;SDS011;11484;50.858;4.384;2022-09-02T08:20:26;6.10;;;2.80;;
22634;SDS011;11484;50.858;4.384;2022-09-02T08:22:54;6.22;;;3.63;;
22634;SDS011;11484;50.858;4.384;2022-09-02T08:25:21;4.30;;;3.40;;
22634;SDS011;11484;50.858;4.384;2022-09-02T08:27:46;5.35;;;3.08;;
22634;SDS011;11484;50.858;4.384;2022-09-02T08:30:13;5.43;;;3.72;;
22634;SDS011;11484;50.858;4.384;2022-09-02T08:32:39;4.55;;;3.15;;
22634;SDS011;11484;50.858;4.384;2022-09-02T08:35:05;5.35;;;2.90;;
22634;SDS011;11484;50.858;4.384;2022-09-02T08:37:33;5.47;;;3.20;;
22634;SDS011;11484;50.858;4.384;2022-09-02T08:40:04;4.43;;;3.17;;
22634;SDS011;11484;50.858;4.384;2022-09-02T08:42:45;6.25;;;3.13;;
22634;SDS011;11484;50.858;4.384;2022-09-02T08:45:16;6.68;;;3.00;;
22634;SDS011;11484;50.858;4.384;2022-09-02T08:48:03;4.57;;;2.60;;
22634;SDS011;11484;50.858;4.384;2022-09-02T08:50:37;3.88;;;3.08;;
22634;SDS011;11484;50.858;4.384;2022-09-02T08:55:41;8.05;;;3.30;;
22634;SDS011;11484;50.858;4.384;2022-09-02T08:58:10;7.28;;;3.28;;
22634;SDS011;11484;50.858;4.384;2022-09-02T09:00:40;6.10;;;3.08;;
22634;SDS011;11484;50.858;4.384;2022-09-02T09:08:34;8.93;;;4.20;;
22634;SDS011;11484;50.858;4.384;2022-09-02T09:11:44;6.18;;;3.50;;
22634;SDS011;11484;50.858;4.384;2022-09-02T09:17:27;7.55;;;3.00;;
22634;SDS011;11484;50.858;4.384;2022-09-02T09:22:09;5.90;;;2.70;;
22634;SDS011;11484;50.858;4.384;2022-09-02T09:24:40;4.90;;;2.97;;
22634;SDS011;11484;50.858;4.384;2022-09-02T09:27:10;9.05;;;2.95;;
22634;SDS011;11484;50.858;4.384;2022-09-02T09:32:04;7.85;;;2.85;;
22634;SDS011;11484;50.858;4.384;2022-09-02T09:34:54;4.90;;;2.78;;
22634;SDS011;11484;50.858;4.384;2022-09-02T09:40:28;5.47;;;3.10;;
22634;SDS011;11484;50.858;4.384;2022-09-02T09:42:54;6.35;;;3.08;;
22634;SDS011;11484;50.858;4.384;2022-09-02T09:48:07;5.07;;;2.75;;
22634;SDS011;11484;50.858;4.384;2022-09-02T09:53:28;7.03;;;2.85;;
22634;SDS011;11484;50.858;4.384;2022-09-02T09:56:02;5.15;;;2.97;;
22634;SDS011;11484;50.858;4.384;2022-09-02T10:01:25;6.03;;;2.60;;
22634;SDS011;11484;50.858;4.384;2022-09-02T10:08:58;4.93;;;2.28;;
22634;SDS011;11484;50.858;4.384;2022-09-02T10:11:29;3.42;;;2.50;;
22634;SDS011;11484;50.858;4.384;2022-09-02T10:14:03;3.10;;;2.55;;
22634;SDS011;11484;50.858;4.384;2022-09-02T10:16:53;5.90;;;2.63;;
22634;SDS011;11484;50.858;4.384;2022-09-02T10:19:28;3.60;;;2.40;;
22634;SDS011;11484;50.858;4.384;2022-09-02T10:25:02;5.53;;;2.67;;
22634;SDS011;11484;50.858;4.384;2022-09-02T10:47:37;3.60;;;2.53;;
22634;SDS011;11484;50.858;4.384;2022-09-02T10:53:05;3.65;;;2.58;;
22634;SDS011;11484;50.858;4.384;2022-09-02T11:01:29;2.90;;;2.58;;
22634;SDS011;11484;50.858;4.384;2022-09-02T11:06:31;4.78;;;2.47;;
22634;SDS011;11484;50.858;4.384;2022-09-02T11:09:26;5.25;;;2.75;;
22634;SDS011;11484;50.858;4.384;2022-09-02T11:11:58;3.72;;;2.60;;
22634;SDS011;11484;50.858;4.384;2022-09-02T11:20:44;5.60;;;2.50;;
22634;SDS011;11484;50.858;4.384;2022-09-02T11:25:59;6.22;;;2.53;;
22634;SDS011;11484;50.858;4.384;2022-09-02T11:28:37;3.65;;;2.00;;
22634;SDS011;11484;50.858;4.384;2022-09-02T11:31:15;5.45;;;2.50;;
22634;SDS011;11484;50.858;4.384;2022-09-02T11:36:59;5.38;;;3.22;;
22634;SDS011;11484;50.858;4.384;2022-09-02T11:39:33;4.95;;;2.80;;
22634;SDS011;11484;50.858;4.384;2022-09-02T11:42:10;5.38;;;2.00;;
22634;SDS011;11484;50.858;4.384;2022-09-02T11:55:37;3.95;;;2.00;;
22634;SDS011;11484;50.858;4.384;2022-09-02T11:58:06;6.47;;;2.08;;
22634;SDS011;11484;50.858;4.384;2022-09-02T12:00:33;2.80;;;2.10;;
22634;SDS011;11484;50.858;4.384;2022-09-02T12:03:22;2.22;;;1.80;;
22634;SDS011;11484;50.858;4.384;2022-09-02T12:06:06;3.00;;;1.85;;
22634;SDS011;11484;50.858;4.384;2022-09-02T12:11:08;3.75;;;2.30;;
22634;SDS011;11484;50.858;4.384;2022-09-02T12:14:06;7.90;;;2.03;;
22634;SDS011;11484;50.858;4.384;2022-09-02T12:17:03;3.28;;;1.88;;
22634;SDS011;11484;50.858;4.384;2022-09-02T12:33:28;4.45;;;1.60;;
22634;SDS011;11484;50.858;4.384;2022-09-02T12:35:54;3.45;;;1.70;;
22634;SDS011;11484;50.858;4.384;2022-09-02T12:38:43;4.18;;;2.13;;
22634;SDS011;11484;50.858;4.384;2022-09-02T12:41:14;4.07;;;1.65;;
22634;SDS011;11484;50.858;4.384;2022-09-02T12:43:52;3.10;;;1.90;;
22634;SDS011;11484;50.858;4.384;2022-09-02T12:52:09;2.80;;;1.80;;
22634;SDS011;11484;50.858;4.384;2022-09-02T12:54:56;4.70;;;3.00;;
22634;SDS011;11484;50.858;4.384;2022-09-02T12:57:37;4.78;;;1.80;;
22634;SDS011;11484;50.858;4.384;2022-09-02T13:00:05;2.85;;;2.10;;
22634;SDS011;11484;50.858;4.384;2022-09-02T13:02:38;3.80;;;1.70;;
22634;SDS011;11484;50.858;4.384;2022-09-02T13:16:45;2.85;;;1.77;;
22634;SDS011;11484;50.858;4.384;2022-09-02T13:22:11;11.32;;;2.15;;
22634;SDS011;11484;50.858;4.384;2022-09-02T13:25:18;1.77;;;1.27;;
22634;SDS011;11484;50.858;4.384;2022-09-02T13:33:34;2.78;;;1.85;;
22634;SDS011;11484;50.858;4.384;2022-09-02T13:35:59;4.53;;;1.98;;
22634;SDS011;11484;50.858;4.384;2022-09-02T13:38:26;4.10;;;1.80;;
22634;SDS011;11484;50.858;4.384;2022-09-02T13:40:54;1.92;;;1.45;;
22634;SDS011;11484;50.858;4.384;2022-09-02T13:43:20;5.63;;;1.50;;
22634;SDS011;11484;50.858;4.384;2022-09-02T13:45:48;4.72;;;1.80;;
22634;SDS011;11484;50.858;4.384;2022-09-02T13:48:19;4.95;;;2.28;;
22634;SDS011;11484;50.858;4.384;2022-09-02T13:50:48;3.90;;;1.70;;
22634;SDS011;11484;50.858;4.384;2022-09-02T13:55:55;2.15;;;1.55;;
22634;SDS011;11484;50.858;4.384;2022-09-02T13:58:30;11.90;;;8.00;;
22634;SDS011;11484;50.858;4.384;2022-09-02T14:01:18;11.93;;;5.47;;
22634;SDS011;11484;50.858;4.384;2022-09-02T14:03:56;4.38;;;2.22;;
22634;SDS011;11484;50.858;4.384;2022-09-02T14:06:27;3.03;;;2.00;;
22634;SDS011;11484;50.858;4.384;2022-09-02T14:09:00;4.38;;;1.90;;
22634;SDS011;11484;50.858;4.384;2022-09-02T14:11:37;2.95;;;1.55;;
22634;SDS011;11484;50.858;4.384;2022-09-02T14:14:08;3.67;;;1.50;;
22634;SDS011;11484;50.858;4.384;2022-09-02T14:16:41;3.10;;;1.50;;
22634;SDS011;11484;50.858;4.384;2022-09-02T14:21:35;2.80;;;1.77;;
22634;SDS011;11484;50.858;4.384;2022-09-02T14:24:02;2.45;;;1.60;;
22634;SDS011;11484;50.858;4.384;2022-09-02T14:26:35;8.60;;;6.22;;
22634;SDS011;11484;50.858;4.384;2022-09-02T14:29:05;2.63;;;1.50;;
22634;SDS011;11484;50.858;4.384;2022-09-02T14:31:32;4.72;;;1.70;;
22634;SDS011;11484;50.858;4.384;2022-09-02T14:33:59;2.50;;;1.60;;
22634;SDS011;11484;50.858;4.384;2022-09-02T14:39:10;3.33;;;1.40;;
22634;SDS011;11484;50.858;4.384;2022-09-02T14:41:48;3.25;;;1.60;;
22634;SDS011;11484;50.858;4.384;2022-09-02T14:46:57;2.75;;;1.40;;
22634;SDS011;11484;50.858;4.384;2022-09-02T14:49:38;3.42;;;1.60;;
22634;SDS011;11484;50.858;4.384;2022-09-02T14:52:17;1.95;;;1.40;;
22634;SDS011;11484;50.858;4.384;2022-09-02T14:54:52;3.78;;;1.50;;
22634;SDS011;11484;50.858;4.384;2022-09-02T14:57:56;3.83;;;1.50;;
22634;SDS011;11484;50.858;4.384;2022-09-02T15:00:11;2.92;;;1.42;;
22634;SDS011;11484;50.858;4.384;2022-09-02T15:08:18;5.10;;;1.77;;
22634;SDS011;11484;50.858;4.384;2022-09-02T15:10:48;2.78;;;1.60;;
22634;SDS011;11484;50.858;4.384;2022-09-02T15:13:32;2.88;;;2.10;;
22634;SDS011;11484;50.858;4.384;2022-09-02T15:15:58;4.50;;;1.52;;
22634;SDS011;11484;50.858;4.384;2022-09-02T15:18:25;5.55;;;1.85;;
22634;SDS011;11484;50.858;4.384;2022-09-02T15:20:51;1.75;;;1.30;;
22634;SDS011;11484;50.858;4.384;2022-09-02T15:23:18;3.40;;;1.42;;
22634;SDS011;11484;50.858;4.384;2022-09-02T15:25:43;3.47;;;1.55;;
22634;SDS011;11484;50.858;4.384;2022-09-02T15:28:09;3.17;;;1.38;;
22634;SDS011;11484;50.858;4.384;2022-09-02T15:30:35;4.75;;;1.60;;
22634;SDS011;11484;50.858;4.384;2022-09-02T15:33:05;1.60;;;1.10;;
22634;SDS011;11484;50.858;4.384;2022-09-02T15:35:33;2.55;;;1.13;;
22634;SDS011;11484;50.858;4.384;2022-09-02T15:37:59;2.33;;;1.25;;
22634;SDS011;11484;50.858;4.384;2022-09-02T15:40:26;5.53;;;1.85;;
22634;SDS011;11484;50.858;4.384;2022-09-02T15:42:53;12.27;;;8.88;;
22634;SDS011;11484;50.858;4.384;2022-09-02T15:45:20;6.60;;;4.18;;
22634;SDS011;11484;50.858;4.384;2022-09-02T15:47:46;7.57;;;4.80;;
22634;SDS011;11484;50.858;4.384;2022-09-02T15:50:12;4.25;;;2.10;;
22634;SDS011;11484;50.858;4.384;2022-09-02T15:52:40;7.97;;;2.85;;
22634;SDS011;11484;50.858;4.384;2022-09-02T15:55:06;2.78;;;1.30;;
22634;SDS011;11484;50.858;4.384;2022-09-02T15:57:32;2.13;;;1.20;;
22634;SDS011;11484;50.858;4.384;2022-09-02T15:59:57;1.60;;;1.05;;
22634;SDS011;11484;50.858;4.384;2022-09-02T16:02:24;4.57;;;1.80;;
22634;SDS011;11484;50.858;4.384;2022-09-02T16:04:49;3.72;;;2.70;;
22634;SDS011;11484;50.858;4.384;2022-09-02T16:07:15;3.42;;;1.20;;
22634;SDS011;11484;50.858;4.384;2022-09-02T16:09:41;8.50;;;4.03;;
22634;SDS011;11484;50.858;4.384;2022-09-02T16:12:06;2.65;;;1.52;;
22634;SDS011;11484;50.858;4.384;2022-09-02T16:14:32;2.78;;;1.33;;
22634;SDS011;11484;50.858;4.384;2022-09-02T16:16:58;2.90;;;1.50;;
22634;SDS011;11484;50.858;4.384;2022-09-02T16:19:24;4.68;;;1.88;;
22634;SDS011;11484;50.858;4.384;2022-09-02T16:21:51;4.80;;;1.27;;
22634;SDS011;11484;50.858;4.384;2022-09-02T16:24:17;2.33;;;1.55;;
22634;SDS011;11484;50.858;4.384;2022-09-02T16:26:45;4.10;;;1.73;;
22634;SDS011;11484;50.858;4.384;2022-09-02T16:29:12;4.60;;;1.60;;
22634;SDS011;11484;50.858;4.384;2022-09-02T16:31:39;2.03;;;1.30;;
22634;SDS011;11484;50.858;4.384;2022-09-02T16:34:10;5.20;;;1.40;;
22634;SDS011;11484;50.858;4.384;2022-09-02T16:36:41;4.07;;;2.92;;
22634;SDS011;11484;50.858;4.384;2022-09-02T16:39:11;3.70;;;1.33;;
22634;SDS011;11484;50.858;4.384;2022-09-02T16:44:09;5.10;;;1.50;;
22634;SDS011;11484;50.858;4.384;2022-09-02T16:46:37;5.30;;;1.50;;
22634;SDS011;11484;50.858;4.384;2022-09-02T16:49:10;4.97;;;1.30;;
22634;SDS011;11484;50.858;4.384;2022-09-02T16:51:37;1.88;;;1.30;;
22634;SDS011;11484;50.858;4.384;2022-09-02T16:54:04;3.33;;;1.52;;
22634;SDS011;11484;50.858;4.384;2022-09-02T16:56:31;3.92;;;1.73;;
22634;SDS011;11484;50.858;4.384;2022-09-02T16:59:01;2.40;;;1.38;;
22634;SDS011;11484;50.858;4.384;2022-09-02T17:01:27;1.70;;;1.40;;
22634;SDS011;11484;50.858;4.384;2022-09-02T17:03:53;4.13;;;1.60;;
22634;SDS011;11484;50.858;4.384;2022-09-02T17:06:19;1.83;;;1.35;;
22634;SDS011;11484;50.858;4.384;2022-09-02T17:08:45;3.35;;;1.30;;
22634;SDS011;11484;50.858;4.384;2022-09-02T17:11:18;3.22;;;1.55;;
22634;SDS011;11484;50.858;4.384;2022-09-02T17:13:53;3.75;;;1.42;;
22634;SDS011;11484;50.858;4.384;2022-09-02T17:16:20;3.22;;;1.35;;
22634;SDS011;11484;50.858;4.384;2022-09-02T17:18:47;4.45;;;1.98;;
22634;SDS011;11484;50.858;4.384;2022-09-02T17:21:18;3.47;;;1.80;;
22634;SDS011;11484;50.858;4.384;2022-09-02T17:23:49;4.00;;;1.70;;
22634;SDS011;11484;50.858;4.384;2022-09-02T17:26:16;4.43;;;2.08;;
22634;SDS011;11484;50.858;4.384;2022-09-02T17:28:42;6.55;;;2.15;;
22634;SDS011;11484;50.858;4.384;2022-09-02T17:31:19;4.47;;;1.70;;
22634;SDS011;11484;50.858;4.384;2022-09-02T17:33:46;4.07;;;1.60;;
22634;SDS011;11484;50.858;4.384;2022-09-02T17:36:13;3.53;;;2.00;;